Time;durP1;ratioP1;P1;durP2;ratioP2;P2;SDS_P1;SDS_P2;PMS_P1;PMS_P2;Temp;Humidity;BMP_temperature;BMP_pressure;BME280_temperature;BME280_humidity;BME280_pressure;Samples;Min_cycle;Max_cycle;Signal;HPM_P1;HPM_P2
2023/09/11 00:01:03;;;;;;;12.05;5.35;;;23.00;48.70;;;;;;5059958;28;20036;-68
2023/09/11 00:03:30;;;;;;;9.23;5.05;;;23.60;47.90;;;;;;5049862;28;20505;-68
2023/09/11 00:06:06;;;;;;;7.30;4.80;;;23.90;45.30;;;;;;5053590;28;20035;-68
2023/09/11 00:08:34;;;;;;;9.27;4.75;;;23.70;46.10;;;;;;5055130;28;20090;-68
2023/09/11 00:11:02;;;;;;;6.45;4.40;;;23.40;45.80;;;;;;5057945;28;20028;-69
2023/09/11 00:13:31;;;;;;;5.78;4.20;;;23.40;46.50;;;;;;5053588;28;20175;-68
2023/09/11 00:15:59;;;;;;;5.35;3.28;;;24.10;44.70;;;;;;5051464;28;20536;-68
2023/09/11 00:18:27;;;;;;;8.80;3.95;;;23.80;44.40;;;;;;5057397;28;20201;-67
2023/09/11 00:20:54;;;;;;;5.50;3.50;;;24.00;43.80;;;;;;5052248;28;20029;-68
2023/09/11 00:23:22;;;;;;;4.93;3.60;;;24.20;44.30;;;;;;5050836;28;20048;-68
2023/09/11 00:25:49;;;;;;;6.93;4.53;;;24.90;41.30;;;;;;5052123;28;20028;-67
2023/09/11 00:28:16;;;;;;;9.10;4.63;;;24.60;42.80;;;;;;5051936;28;20135;-68
2023/09/11 00:30:44;;;;;;;8.38;4.65;;;24.70;42.10;;;;;;5051498;28;20056;-68
2023/09/11 00:33:11;;;;;;;9.27;4.53;;;24.50;42.10;;;;;;5050817;28;20056;-68
2023/09/11 00:35:38;;;;;;;10.55;4.55;;;24.10;43.30;;;;;;5048024;28;20013;-68
2023/09/11 00:38:06;;;;;;;8.68;4.50;;;23.80;41.80;;;;;;5054572;28;20025;-68
2023/09/11 00:40:34;;;;;;;9.02;4.75;;;23.40;44.00;;;;;;5044306;28;20540;-67
2023/09/11 00:43:02;;;;;;;6.07;4.20;;;22.90;45.00;;;;;;5053373;28;20028;-69
2023/09/11 00:45:30;;;;;;;6.32;4.05;;;23.80;44.90;;;;;;5054378;28;20033;-68
2023/09/11 00:47:59;;;;;;;7.15;3.83;;;24.30;44.40;;;;;;5057593;28;20086;-68
2023/09/11 00:50:27;;;;;;;4.75;3.33;;;24.50;42.80;;;;;;5058701;28;20020;-67
2023/09/11 00:52:54;;;;;;;5.97;3.58;;;25.00;43.10;;;;;;5055676;28;20128;-68
2023/09/11 00:55:23;;;;;;;5.53;3.40;;;25.20;43.60;;;;;;5060496;28;20040;-68
2023/09/11 00:57:51;;;;;;;9.05;3.47;;;25.50;41.80;;;;;;5048656;28;20021;-69
2023/09/11 01:00:19;;;;;;;5.63;2.47;;;25.70;39.40;;;;;;5059298;28;20039;-68
2023/09/11 01:02:48;;;;;;;6.05;2.70;;;25.40;38.60;;;;;;5054228;28;20048;-67
2023/09/11 01:05:16;;;;;;;3.67;2.30;;;24.60;42.00;;;;;;5056083;28;20021;-67
2023/09/11 01:07:43;;;;;;;4.03;2.40;;;24.40;42.20;;;;;;5059912;28;20031;-67
2023/09/11 01:10:11;;;;;;;7.47;2.80;;;24.60;41.40;;;;;;5056537;28;20028;-67
2023/09/11 01:12:39;;;;;;;4.18;2.47;;;25.40;41.60;;;;;;5052119;28;20049;-67
2023/09/11 01:15:08;;;;;;;3.42;2.00;;;25.40;41.60;;;;;;5056028;28;20023;-68
2023/09/11 01:17:42;;;;;;;3.92;2.28;;;25.70;39.50;;;;;;5049359;28;20533;-68
2023/09/11 01:20:34;;;;;;;5.18;2.78;;;25.80;40.80;;;;;;5044654;28;20029;-68
2023/09/11 01:23:31;;;;;;;3.38;2.10;;;26.00;39.40;;;;;;5053640;28;20056;-68
2023/09/11 01:26:29;;;;;;;4.07;2.10;;;26.10;39.40;;;;;;5049612;28;20113;-67
2023/09/11 01:29:17;;;;;;;5.15;1.95;;;26.50;40.10;;;;;;5059645;28;20505;-67
2023/09/11 01:31:45;;;;;;;6.90;2.30;;;26.60;39.30;;;;;;5054413;28;20037;-67
2023/09/11 01:34:14;;;;;;;3.38;1.80;;;26.40;36.90;;;;;;5047079;28;20107;-67
2023/09/11 01:36:41;;;;;;;4.68;1.80;;;26.20;38.00;;;;;;5058869;28;20033;-68
2023/09/11 01:39:09;;;;;;;2.55;1.50;;;25.90;36.50;;;;;;5048457;28;20121;-67
2023/09/11 01:41:41;;;;;;;5.50;2.10;;;25.90;37.60;;;;;;5057294;28;20052;-67
2023/09/11 01:44:32;;;;;;;6.22;2.08;;;26.00;37.20;;;;;;5054369;28;20028;-68
2023/09/11 01:47:02;;;;;;;3.25;1.95;;;25.70;38.20;;;;;;5051922;28;20029;-68
2023/09/11 01:49:32;;;;;;;3.85;2.00;;;25.80;38.90;;;;;;5048039;28;20017;-68
2023/09/11 01:51:59;;;;;;;5.97;2.00;;;25.90;39.90;;;;;;5057768;28;20111;-68
2023/09/11 01:54:27;;;;;;;3.90;1.85;;;26.10;38.60;;;;;;5065813;28;20033;-67
2023/09/11 01:56:54;;;;;;;6.63;1.77;;;25.00;37.10;;;;;;5054006;28;20024;-67
2023/09/11 01:59:24;;;;;;;3.40;1.58;;;24.30;37.30;;;;;;5063624;28;20032;-68
2023/09/11 02:01:51;;;;;;;4.18;1.77;;;24.10;36.90;;;;;;5055422;28;20033;-69
2023/09/11 02:04:18;;;;;;;8.05;1.65;;;24.10;39.50;;;;;;5050420;28;20013;-69
2023/09/11 02:06:47;;;;;;;6.43;1.50;;;24.70;39.00;;;;;;5057201;28;20020;-68
2023/09/11 02:09:14;;;;;;;4.82;1.35;;;24.80;37.90;;;;;;5055136;28;20104;-67
2023/09/11 02:11:42;;;;;;;3.95;1.23;;;24.50;38.60;;;;;;5051870;28;20032;-68
2023/09/11 02:14:09;;;;;;;5.38;1.80;;;24.10;37.80;;;;;;5053261;28;20128;-68
2023/09/11 02:16:36;;;;;;;2.72;1.33;;;24.20;37.10;;;;;;5053312;28;20486;-69
2023/09/11 02:19:04;;;;;;;7.40;2.08;;;24.30;38.30;;;;;;5050376;28;20025;-69
2023/09/11 02:21:31;;;;;;;4.13;2.22;;;23.90;38.60;;;;;;5049761;28;20055;-68
2023/09/11 02:23:58;;;;;;;4.25;1.80;;;24.50;39.40;;;;;;5054473;28;20053;-69
2023/09/11 02:26:26;;;;;;;7.25;1.90;;;24.90;39.10;;;;;;5065027;28;20428;-68
2023/09/11 02:28:55;;;;;;;3.17;1.80;;;24.70;37.20;;;;;;5066765;28;20496;-68
2023/09/11 02:31:22;;;;;;;7.88;2.22;;;24.20;38.40;;;;;;5055841;28;20031;-67
2023/09/11 02:33:49;;;;;;;6.75;2.70;;;24.40;38.40;;;;;;5061836;28;20037;-67
2023/09/11 02:36:17;;;;;;;3.63;1.88;;;24.30;39.60;;;;;;5065723;28;20028;-66
2023/09/11 02:38:45;;;;;;;5.97;1.80;;;24.70;38.20;;;;;;5050959;28;20051;-69
2023/09/11 02:41:12;;;;;;;4.43;1.90;;;25.10;38.60;;;;;;5062000;28;20024;-68
2023/09/11 02:43:39;;;;;;;4.03;1.85;;;25.30;39.00;;;;;;5063717;28;20039;-67
2023/09/11 02:46:07;;;;;;;4.75;2.10;;;25.70;38.60;;;;;;5059010;28;20021;-67
2023/09/11 02:48:34;;;;;;;7.50;1.92;;;26.20;38.50;;;;;;5064621;28;20080;-68
2023/09/11 02:51:01;;;;;;;7.60;1.90;;;26.20;37.30;;;;;;5059186;28;20021;-68
2023/09/11 02:53:29;;;;;;;6.70;1.80;;;26.00;36.30;;;;;;5065002;28;20151;-67
2023/09/11 02:55:56;;;;;;;3.90;1.40;;;25.70;36.20;;;;;;5062410;28;20123;-67
2023/09/11 02:58:23;;;;;;;4.05;1.80;;;25.40;36.40;;;;;;5062220;28;20055;-67
2023/09/11 03:00:51;;;;;;;4.68;1.90;;;24.40;38.20;;;;;;5059150;28;20052;-67
2023/09/11 03:03:18;;;;;;;10.23;2.15;;;24.40;37.40;;;;;;5058952;28;20035;-68
2023/09/11 03:05:45;;;;;;;5.13;1.80;;;23.80;38.40;;;;;;5060825;28;20033;-67
2023/09/11 03:08:13;;;;;;;4.50;2.25;;;24.10;39.40;;;;;;5061783;28;20021;-67
2023/09/11 03:10:40;;;;;;;7.22;2.13;;;24.10;38.10;;;;;;5053266;28;20096;-68
2023/09/11 03:13:07;;;;;;;3.47;1.90;;;24.50;38.80;;;;;;5060195;28;20119;-68
2023/09/11 03:15:35;;;;;;;3.95;1.67;;;25.00;38.30;;;;;;5059046;28;20082;-67
2023/09/11 03:18:03;;;;;;;7.85;2.10;;;25.30;38.20;;;;;;5063230;28;20485;-67
2023/09/11 03:20:30;;;;;;;4.82;2.17;;;25.60;38.60;;;;;;5061831;28;20035;-68
2023/09/11 03:22:59;;;;;;;4.47;1.88;;;26.00;38.70;;;;;;5059152;28;20076;-68
2023/09/11 03:25:27;;;;;;;2.90;1.80;;;26.10;38.00;;;;;;5063487;28;20120;-67
2023/09/11 03:27:54;;;;;;;3.45;1.73;;;26.00;37.20;;;;;;5060243;28;20056;-68
2023/09/11 03:30:21;;;;;;;6.95;2.03;;;25.60;36.80;;;;;;5057829;28;20020;-67
2023/09/11 03:32:50;;;;;;;6.97;2.13;;;25.40;38.10;;;;;;5057929;28;20120;-67
2023/09/11 03:35:18;;;;;;;3.25;1.73;;;25.40;37.10;;;;;;5059145;28;20492;-68
2023/09/11 03:37:45;;;;;;;4.38;2.05;;;24.70;37.70;;;;;;5053081;28;20051;-68
2023/09/11 03:40:14;;;;;;;6.97;1.70;;;24.60;38.10;;;;;;5055457;28;20416;-68
2023/09/11 03:42:41;;;;;;;3.15;1.75;;;24.60;37.60;;;;;;5052225;28;20090;-68
2023/09/11 03:45:09;;;;;;;7.72;1.77;;;24.10;38.00;;;;;;5061033;28;20028;-67
2023/09/11 03:47:36;;;;;;;3.42;1.65;;;24.10;38.50;;;;;;5048957;28;20028;-68
2023/09/11 03:50:04;;;;;;;5.38;1.77;;;24.00;37.90;;;;;;5052578;28;20064;-67
2023/09/11 03:52:31;;;;;;;3.67;1.80;;;24.50;38.50;;;;;;5053823;28;20087;-67
2023/09/11 03:54:58;;;;;;;4.00;1.73;;;24.90;37.00;;;;;;5051836;28;20035;-68
2023/09/11 03:57:26;;;;;;;5.00;2.05;;;25.10;37.60;;;;;;5053366;28;20445;-68
2023/09/11 03:59:53;;;;;;;4.05;2.13;;;25.30;37.40;;;;;;5061710;28;20025;-69
2023/09/11 04:02:21;;;;;;;3.45;1.95;;;25.70;37.80;;;;;;5070297;28;20111;-68
2023/09/11 04:04:48;;;;;;;4.72;1.65;;;25.60;37.80;;;;;;5051994;28;20033;-69
2023/09/11 04:07:15;;;;;;;4.90;1.77;;;25.80;38.60;;;;;;5053940;28;20081;-68
2023/09/11 04:09:42;;;;;;;6.43;1.92;;;25.80;37.40;;;;;;5050894;28;20025;-67
2023/09/11 04:12:14;;;;;;;3.83;1.67;;;25.80;36.10;;;;;;5066155;28;20036;-67
2023/09/11 04:14:41;;;;;;;7.10;1.88;;;25.20;35.50;;;;;;5053622;28;20036;-68
2023/09/11 04:17:10;;;;;;;3.60;1.80;;;24.00;37.30;;;;;;5056235;28;20449;-69
2023/09/11 04:19:38;;;;;;;3.10;1.60;;;23.80;37.20;;;;;;5049613;28;20870;-67
2023/09/11 04:22:06;;;;;;;4.07;1.60;;;24.10;39.10;;;;;;5053581;28;20045;-67
2023/09/11 04:24:34;;;;;;;3.58;1.70;;;24.50;38.20;;;;;;5056985;28;20036;-68
2023/09/11 04:27:01;;;;;;;2.75;1.33;;;24.80;37.80;;;;;;5058375;28;20037;-67
2023/09/11 04:29:31;;;;;;;2.25;1.48;;;25.10;37.80;;;;;;5060396;28;20025;-67
2023/09/11 04:31:58;;;;;;;3.30;1.60;;;25.30;38.50;;;;;;5059624;28;20024;-67
2023/09/11 04:34:27;;;;;;;2.85;1.33;;;25.50;38.30;;;;;;5056829;28;20036;-67
2023/09/11 04:36:55;;;;;;;3.25;1.60;;;25.30;38.50;;;;;;5059154;28;20494;-67
2023/09/11 04:39:25;;;;;;;5.18;1.50;;;25.50;37.80;;;;;;5059844;28;20093;-67
2023/09/11 04:41:53;;;;;;;5.32;1.70;;;25.50;37.10;;;;;;5056746;28;20502;-67
2023/09/11 04:44:20;;;;;;;4.30;1.73;;;25.50;38.10;;;;;;5051078;28;20045;-69
2023/09/11 04:46:47;;;;;;;5.80;1.75;;;25.40;37.30;;;;;;5054271;28;20024;-67
2023/09/11 04:49:14;;;;;;;4.55;1.88;;;25.20;37.80;;;;;;5053891;28;20057;-67
2023/09/11 04:51:42;;;;;;;6.82;1.77;;;25.30;37.60;;;;;;5044057;28;20562;-67
2023/09/11 04:54:09;;;;;;;3.60;1.35;;;25.40;36.60;;;;;;5056654;28;20044;-67
2023/09/11 04:56:37;;;;;;;4.13;1.55;;;25.40;37.40;;;;;;5055909;28;20024;-66
2023/09/11 04:59:04;;;;;;;5.10;1.70;;;25.50;35.00;;;;;;5052764;28;20029;-68
2023/09/11 05:01:31;;;;;;;6.40;1.80;;;24.70;35.90;;;;;;5060169;28;20037;-67
2023/09/11 05:03:59;;;;;;;5.32;1.67;;;24.70;39.40;;;;;;5043230;28;20048;-67
2023/09/11 05:06:26;;;;;;;4.75;1.20;;;24.90;38.70;;;;;;5041363;28;20388;-68
2023/09/11 05:08:53;;;;;;;5.57;1.60;;;25.10;38.30;;;;;;5041612;28;20554;-67
2023/09/11 05:11:21;;;;;;;4.03;1.50;;;24.80;36.30;;;;;;5041366;28;20031;-67
2023/09/11 05:13:48;;;;;;;4.38;1.60;;;24.50;37.10;;;;;;5046513;28;20036;-67
2023/09/11 05:16:17;;;;;;;4.70;1.58;;;24.50;37.70;;;;;;5055380;28;20035;-67
2023/09/11 05:18:45;;;;;;;4.32;1.67;;;24.40;38.50;;;;;;5059879;28;20463;-68
2023/09/11 05:21:12;;;;;;;5.75;1.95;;;24.10;37.70;;;;;;5044608;28;20024;-67
2023/09/11 05:23:44;;;;;;;4.30;1.80;;;24.20;38.70;;;;;;5053167;28;20510;-68
2023/09/11 05:26:11;;;;;;;5.82;2.40;;;24.20;38.20;;;;;;5049930;28;20036;-67
2023/09/11 05:28:38;;;;;;;4.30;2.13;;;24.40;38.00;;;;;;5050617;28;20429;-68
2023/09/11 05:31:07;;;;;;;3.65;1.75;;;23.90;37.80;;;;;;5045457;28;20056;-67
2023/09/11 05:33:34;;;;;;;4.18;1.92;;;23.70;38.50;;;;;;5039944;28;20049;-68
2023/09/11 05:36:02;;;;;;;4.70;2.20;;;23.60;38.40;;;;;;5043296;28;20120;-69
2023/09/11 05:38:30;;;;;;;3.13;1.70;;;23.40;38.80;;;;;;5048337;28;20052;-69
2023/09/11 05:40:57;;;;;;;4.18;1.85;;;23.50;38.80;;;;;;5054559;28;20025;-68
2023/09/11 05:43:27;;;;;;;4.10;1.70;;;23.40;39.00;;;;;;5067177;28;20060;-67
2023/09/11 05:45:56;;;;;;;6.53;1.92;;;23.60;39.80;;;;;;5054127;28;20026;-68
2023/09/11 05:48:23;;;;;;;3.90;1.80;;;23.80;39.00;;;;;;5054098;28;20060;-67
2023/09/11 05:50:51;;;;;;;4.93;1.92;;;23.70;39.50;;;;;;5054969;28;20029;-68
2023/09/11 05:53:18;;;;;;;4.68;1.90;;;23.50;39.30;;;;;;5051900;28;20048;-69
2023/09/11 05:55:45;;;;;;;3.28;1.42;;;23.70;39.30;;;;;;5041139;28;20510;-68
2023/09/11 05:58:13;;;;;;;5.18;1.80;;;23.80;39.50;;;;;;5044819;28;20123;-68
2023/09/11 06:00:40;;;;;;;3.08;1.92;;;23.70;39.00;;;;;;5049085;28;20441;-67
2023/09/11 06:03:07;;;;;;;6.25;2.13;;;23.50;38.70;;;;;;5065366;28;20021;-67
2023/09/11 06:05:39;;;;;;;5.88;1.70;;;23.50;39.20;;;;;;5064961;28;20564;-68
2023/09/11 06:08:07;;;;;;;3.30;1.73;;;23.60;39.50;;;;;;5046841;28;20453;-67
2023/09/11 06:10:35;;;;;;;4.43;1.92;;;23.60;39.60;;;;;;5048054;28;20388;-69
2023/09/11 06:13:02;;;;;;;3.85;1.75;;;23.40;38.40;;;;;;5058358;28;20049;-68
2023/09/11 06:15:30;;;;;;;6.95;2.40;;;23.20;39.00;;;;;;5057203;28;20028;-68
2023/09/11 06:17:57;;;;;;;8.05;2.78;;;23.20;42.40;;;;;;5053635;28;20368;-67
2023/09/11 06:20:25;;;;;;;6.38;2.97;;;23.20;43.00;;;;;;5054693;28;20053;-67
2023/09/11 06:22:53;;;;;;;6.38;2.97;;;22.90;44.00;;;;;;5049546;28;20118;-68
2023/09/11 06:25:20;;;;;;;9.55;3.00;;;22.60;44.90;;;;;;5056165;28;20035;-66
2023/09/11 06:27:47;;;;;;;7.55;2.45;;;22.40;46.20;;;;;;5047148;28;20119;-68
2023/09/11 06:30:15;;;;;;;6.40;2.42;;;22.00;46.50;;;;;;5050562;28;20062;-68
2023/09/11 06:32:42;;;;;;;6.28;2.22;;;22.00;47.00;;;;;;5060080;28;20028;-67
2023/09/11 06:35:10;;;;;;;7.38;2.38;;;21.80;47.50;;;;;;5056512;28;20095;-68
2023/09/11 06:37:37;;;;;;;4.13;2.38;;;21.70;48.40;;;;;;5052418;28;20028;-68
2023/09/11 06:40:09;;;;;;;9.02;2.47;;;21.60;48.70;;;;;;5062889;28;20024;-68
2023/09/11 06:42:36;;;;;;;5.75;2.00;;;21.30;49.40;;;;;;5056197;28;20437;-67
2023/09/11 06:45:04;;;;;;;11.05;2.00;;;21.00;49.90;;;;;;5060395;28;20030;-67
2023/09/11 06:47:32;;;;;;;7.53;2.13;;;20.70;50.80;;;;;;5060187;28;20064;-68
2023/09/11 06:49:59;;;;;;;6.20;2.30;;;20.70;51.30;;;;;;5055049;28;20029;-67
2023/09/11 06:52:27;;;;;;;7.68;2.40;;;20.50;52.40;;;;;;5054422;28;20032;-67
2023/09/11 06:54:54;;;;;;;6.68;2.10;;;20.40;53.00;;;;;;5051254;28;20389;-67
2023/09/11 06:57:23;;;;;;;7.28;2.13;;;20.30;53.40;;;;;;5055754;28;20432;-67
2023/09/11 06:59:52;;;;;;;7.35;2.33;;;20.20;54.10;;;;;;5060639;28;20082;-68
2023/09/11 07:02:20;;;;;;;6.15;2.22;;;20.00;54.50;;;;;;5057907;28;20482;-68
2023/09/11 07:04:47;;;;;;;8.02;2.50;;;19.90;55.20;;;;;;5056845;28;20028;-66
2023/09/11 07:07:14;;;;;;;6.45;1.92;;;19.80;56.00;;;;;;5058477;28;20342;-68
2023/09/11 07:09:42;;;;;;;6.07;2.17;;;19.80;56.40;;;;;;5055960;28;20039;-68
2023/09/11 07:12:09;;;;;;;6.20;2.08;;;19.70;56.80;;;;;;5059241;28;20036;-69
2023/09/11 07:14:37;;;;;;;6.15;2.20;;;19.60;57.60;;;;;;5056441;28;20037;-68
2023/09/11 07:17:04;;;;;;;6.43;2.63;;;19.40;58.20;;;;;;5048710;28;20060;-68
2023/09/11 07:19:32;;;;;;;6.97;1.80;;;19.30;58.90;;;;;;5060785;28;20028;-68
2023/09/11 07:21:59;;;;;;;8.38;2.50;;;19.20;59.40;;;;;;5057844;28;20037;-69
2023/09/11 07:24:26;;;;;;;6.47;2.50;;;19.20;59.60;;;;;;5047190;28;22086;-71
2023/09/11 07:26:54;;;;;;;5.95;2.35;;;19.00;60.40;;;;;;5048482;28;20029;-68
2023/09/11 07:29:26;;;;;;;10.27;3.13;;;18.90;60.80;;;;;;5052379;28;20039;-69
2023/09/11 07:31:53;;;;;;;6.60;2.80;;;18.80;61.00;;;;;;5053294;28;20583;-68
2023/09/11 07:34:21;;;;;;;6.82;1.92;;;18.80;61.50;;;;;;5051732;28;20155;-68
2023/09/11 07:36:48;;;;;;;6.75;2.55;;;18.60;62.10;;;;;;5050835;28;20039;-67
2023/09/11 07:39:15;;;;;;;5.68;2.28;;;18.40;62.70;;;;;;5045205;28;20122;-68
2023/09/11 07:41:43;;;;;;;7.32;1.77;;;18.40;63.10;;;;;;5053464;28;20390;-68
2023/09/11 07:44:10;;;;;;;9.70;2.25;;;18.40;63.30;;;;;;5053340;28;20041;-68
2023/09/11 07:46:37;;;;;;;9.60;2.10;;;18.40;63.60;;;;;;5060467;28;20028;-68
2023/09/11 07:49:05;;;;;;;6.97;2.17;;;18.40;63.60;;;;;;5052760;28;20025;-68
2023/09/11 07:51:32;;;;;;;5.95;2.33;;;18.30;64.50;;;;;;5055337;28;20342;-68
2023/09/11 07:53:59;;;;;;;6.65;2.13;;;18.20;64.30;;;;;;5058638;28;20037;-68
2023/09/11 07:56:27;;;;;;;10.15;2.80;;;18.10;64.40;;;;;;5052570;28;20064;-68
2023/09/11 07:58:55;;;;;;;4.57;1.90;;;18.10;64.80;;;;;;5057892;28;20100;-68
2023/09/11 08:01:23;;;;;;;5.30;2.50;;;18.00;65.00;;;;;;5054205;28;20379;-68
2023/09/11 08:03:50;;;;;;;7.40;2.55;;;17.90;65.30;;;;;;5053358;28;20067;-68
2023/09/11 08:06:18;;;;;;;6.43;1.92;;;17.90;65.50;;;;;;5048711;28;20382;-69
2023/09/11 08:08:46;;;;;;;7.88;1.75;;;17.90;65.60;;;;;;5061884;28;20108;-69
2023/09/11 08:11:16;;;;;;;8.18;2.13;;;17.80;65.70;;;;;;5046378;28;20101;-70
2023/09/11 08:13:46;;;;;;;7.85;2.00;;;17.70;66.30;;;;;;5049934;28;20038;-68
2023/09/11 08:16:18;;;;;;;6.93;2.10;;;17.60;66.70;;;;;;5050839;28;20078;-68
2023/09/11 08:18:45;;;;;;;9.15;2.83;;;17.40;67.20;;;;;;5045374;28;20048;-69
2023/09/11 08:21:12;;;;;;;5.22;2.22;;;17.40;67.50;;;;;;5045854;28;20364;-68
2023/09/11 08:23:43;;;;;;;9.88;2.55;;;17.40;67.80;;;;;;5055796;28;20040;-69
2023/09/11 08:26:11;;;;;;;12.32;2.60;;;17.40;68.10;;;;;;5058626;28;20141;-67
2023/09/11 08:28:39;;;;;;;6.22;2.20;;;17.30;68.40;;;;;;5064486;28;20028;-68
2023/09/11 08:31:07;;;;;;;7.18;2.33;;;17.30;68.60;;;;;;5060003;28;20512;-68
2023/09/11 08:33:34;;;;;;;6.82;2.28;;;17.20;69.20;;;;;;5060233;28;20040;-69
2023/09/11 08:36:01;;;;;;;7.15;2.17;;;17.20;69.40;;;;;;5046312;28;20094;-68
2023/09/11 08:38:29;;;;;;;5.32;2.40;;;17.10;69.60;;;;;;5053663;28;20051;-68
2023/09/11 08:40:56;;;;;;;6.93;3.20;;;17.00;69.60;;;;;;5050501;28;20033;-67
2023/09/11 08:43:24;;;;;;;8.05;3.00;;;16.90;70.60;;;;;;5061421;28;20066;-68
2023/09/11 08:45:54;;;;;;;6.28;2.55;;;16.80;70.80;;;;;;5051784;28;20083;-68
2023/09/11 08:48:25;;;;;;;12.07;3.25;;;16.80;71.00;;;;;;5053864;28;20032;-67
2023/09/11 08:51:01;;;;;;;11.05;3.00;;;16.80;71.20;;;;;;5050042;28;20036;-68
2023/09/11 08:53:31;;;;;;;7.93;3.08;;;16.70;71.60;;;;;;5055318;28;20040;-68
2023/09/11 08:56:00;;;;;;;10.45;2.63;;;16.80;71.80;;;;;;5052507;28;20386;-67
2023/09/11 08:58:29;;;;;;;9.10;2.72;;;16.80;72.00;;;;;;5058678;28;20017;-68
2023/09/11 09:00:57;;;;;;;8.02;2.75;;;16.80;72.20;;;;;;5044269;28;20069;-68
2023/09/11 09:03:25;;;;;;;10.15;3.35;;;16.60;72.90;;;;;;5043948;28;20066;-67
2023/09/11 09:05:54;;;;;;;9.55;2.72;;;16.50;73.30;;;;;;5045748;28;21379;-67
2023/09/11 09:08:21;;;;;;;11.00;3.63;;;16.60;73.30;;;;;;5048378;28;20478;-67
2023/09/11 09:10:50;;;;;;;8.63;2.95;;;16.50;73.80;;;;;;5044936;28;20017;-67
2023/09/11 09:13:17;;;;;;;6.28;3.08;;;16.20;74.30;;;;;;5054459;28;20051;-67
2023/09/11 09:15:47;;;;;;;11.05;3.67;;;16.00;75.30;;;;;;5058075;28;20032;-67
2023/09/11 09:18:14;;;;;;;7.20;2.80;;;15.90;75.60;;;;;;5051354;28;20051;-67
2023/09/11 09:20:42;;;;;;;6.25;3.00;;;15.90;76.10;;;;;;5052027;28;20035;-67
2023/09/11 09:23:11;;;;;;;7.20;2.67;;;15.70;76.70;;;;;;5051006;28;20061;-67
2023/09/11 09:25:42;;;;;;;5.57;2.92;;;15.70;76.60;;;;;;5051791;28;20139;-67
2023/09/11 09:28:26;;;;;;;11.27;2.60;;;15.70;77.30;;;;;;5050611;28;20218;-67
2023/09/11 09:30:57;;;;;;;7.40;2.60;;;15.60;77.50;;;;;;5052938;28;20029;-67
2023/09/11 09:33:24;;;;;;;7.45;2.60;;;15.50;77.90;;;;;;5050419;28;20083;-67
2023/09/11 09:35:52;;;;;;;8.50;3.05;;;15.50;78.30;;;;;;5048144;28;20564;-66
2023/09/11 09:38:22;;;;;;;11.75;3.15;;;15.40;78.50;;;;;;5052141;28;20032;-66
2023/09/11 09:40:51;;;;;;;9.93;3.03;;;15.30;78.90;;;;;;5058795;28;20474;-68
2023/09/11 09:43:19;;;;;;;7.47;2.67;;;15.30;79.20;;;;;;5054153;28;20039;-67
2023/09/11 09:45:47;;;;;;;5.72;2.30;;;15.30;79.30;;;;;;5056273;28;20564;-67
2023/09/11 09:48:20;;;;;;;6.93;2.47;;;15.20;79.40;;;;;;5053637;28;20119;-66
2023/09/11 09:51:00;;;;;;;6.60;2.33;;;15.20;80.40;;;;;;5051442;28;20033;-67
2023/09/11 09:53:32;;;;;;;7.97;2.60;;;15.20;79.80;;;;;;5054716;28;20048;-67
2023/09/11 09:56:07;;;;;;;6.13;2.35;;;15.10;80.10;;;;;;5060026;28;20035;-67
2023/09/11 09:58:42;;;;;;;7.95;2.50;;;15.10;80.70;;;;;;5056535;28;20025;-67
2023/09/11 10:01:19;;;;;;;7.65;2.90;;;15.00;81.00;;;;;;5054141;28;20107;-66
2023/09/11 10:03:49;;;;;;;6.68;3.20;;;14.90;81.40;;;;;;5056389;28;20032;-67
2023/09/11 10:06:23;;;;;;;7.53;3.00;;;14.80;81.60;;;;;;5052370;28;20041;-67
2023/09/11 10:09:12;;;;;;;9.00;3.28;;;14.80;82.10;;;;;;5053437;28;20501;-68
2023/09/11 10:11:41;;;;;;;9.38;3.63;;;14.70;82.60;;;;;;5048233;28;20040;-68
2023/09/11 10:14:09;;;;;;;10.38;4.95;;;14.70;82.60;;;;;;5060911;28;20108;-67
2023/09/11 10:16:37;;;;;;;15.98;6.50;;;14.60;83.00;;;;;;5049118;28;20043;-68
2023/09/11 10:19:05;;;;;;;13.88;6.95;;;14.60;83.30;;;;;;5058433;28;20028;-67
2023/09/11 10:21:33;;;;;;;16.05;8.00;;;14.50;83.30;;;;;;5060207;28;20028;-68
2023/09/11 10:24:01;;;;;;;15.23;8.63;;;14.60;83.20;;;;;;5050832;28;20048;-67
2023/09/11 10:26:45;;;;;;;14.52;9.30;;;14.50;83.30;;;;;;5053263;28;20033;-67
2023/09/11 10:29:36;;;;;;;18.58;8.98;;;14.40;83.60;;;;;;5069257;28;20024;-67
2023/09/11 10:32:09;;;;;;;16.25;8.02;;;14.40;83.90;;;;;;5050875;28;20036;-66
2023/09/11 10:34:38;;;;;;;15.88;8.75;;;14.40;83.70;;;;;;5074574;28;20037;-67
2023/09/11 10:37:06;;;;;;;20.55;11.38;;;14.40;83.80;;;;;;5046724;28;20106;-67
2023/09/11 10:39:36;;;;;;;22.67;12.05;;;14.30;84.10;;;;;;5064685;28;20057;-67
2023/09/11 10:42:04;;;;;;;30.65;14.98;;;14.30;84.40;;;;;;5053174;28;20032;-68
2023/09/11 10:44:37;;;;;;;30.83;18.42;;;14.20;84.70;;;;;;5051487;28;20035;-70
2023/09/11 10:47:04;;;;;;;34.90;22.67;;;14.20;85.00;;;;;;5057183;28;20087;-68
2023/09/11 10:49:37;;;;;;;41.47;25.17;;;14.20;84.80;;;;;;5065934;28;20020;-69
2023/09/11 10:52:11;;;;;;;55.40;29.60;;;14.10;85.00;;;;;;5063775;28;20029;-68
2023/09/11 10:54:40;;;;;;;58.05;34.13;;;14.10;85.50;;;;;;5055453;28;20748;-67
2023/09/11 10:57:07;;;;;;;61.42;37.35;;;14.10;85.60;;;;;;5051592;28;20467;-68
2023/09/11 10:59:35;;;;;;;73.80;42.38;;;13.90;85.80;;;;;;5055041;28;20047;-68
2023/09/11 11:02:03;;;;;;;78.65;47.47;;;13.90;86.40;;;;;;5053860;28;20021;-68
2023/09/11 11:04:32;;;;;;;92.15;54.90;;;13.80;87.00;;;;;;5053504;28;20029;-67
2023/09/11 11:07:01;;;;;;;94.28;59.75;;;13.80;87.10;;;;;;5053208;28;20029;-67
2023/09/11 11:09:33;;;;;;;105.97;65.05;;;13.80;87.40;;;;;;5055284;28;20021;-68
2023/09/11 11:12:08;;;;;;;103.63;69.30;;;13.80;87.90;;;;;;5054064;28;20036;-68
2023/09/11 11:14:36;;;;;;;116.57;75.22;;;13.70;88.00;;;;;;5056165;28;20052;-68
2023/09/11 11:17:13;;;;;;;122.55;77.65;;;13.70;88.20;;;;;;5061933;28;20127;-68
2023/09/11 11:20:00;;;;;;;116.65;76.07;;;13.80;88.00;;;;;;5056503;28;20036;-68
2023/09/11 11:22:33;;;;;;;117.32;73.22;;;13.80;88.00;;;;;;5055309;28;20060;-68
2023/09/11 11:25:05;;;;;;;122.25;75.35;;;13.80;88.00;;;;;;5047766;28;20058;-68
2023/09/11 11:27:32;;;;;;;117.68;74.57;;;13.60;88.00;;;;;;5050115;28;20025;-68
2023/09/11 11:30:04;;;;;;;114.75;73.88;;;13.60;88.10;;;;;;5057832;28;20028;-69
2023/09/11 11:32:33;;;;;;;121.90;74.00;;;13.60;88.50;;;;;;5055504;28;20029;-68
2023/09/11 11:35:07;;;;;;;119.88;73.10;;;13.50;88.80;;;;;;5060298;28;20047;-69
2023/09/11 11:37:37;;;;;;;113.18;71.07;;;13.50;89.00;;;;;;5054309;28;20426;-68
2023/09/11 11:40:10;;;;;;;107.55;69.97;;;13.50;89.20;;;;;;5060167;28;20033;-68
2023/09/11 11:42:38;;;;;;;105.28;69.70;;;13.40;89.60;;;;;;5060837;28;20409;-68
2023/09/11 11:45:07;;;;;;;105.55;69.22;;;13.40;89.40;;;;;;5057708;28;20063;-68
2023/09/11 11:47:34;;;;;;;119.70;71.70;;;13.40;89.60;;;;;;5054252;28;20033;-69
2023/09/11 11:50:11;;;;;;;110.38;68.75;;;13.30;90.00;;;;;;5056532;28;20424;-68
2023/09/11 11:52:43;;;;;;;107.30;70.68;;;13.30;90.00;;;;;;5062523;28;20036;-68
2023/09/11 11:55:25;;;;;;;121.50;75.63;;;13.20;90.20;;;;;;5064501;28;20063;-68
2023/09/11 11:57:53;;;;;;;126.88;74.75;;;13.10;90.50;;;;;;5053292;28;20037;-66
2023/09/11 12:00:21;;;;;;;117.10;74.25;;;13.10;90.60;;;;;;5058344;28;20024;-67
2023/09/11 12:02:49;;;;;;;116.20;75.15;;;13.10;90.70;;;;;;5052230;28;20036;-67
2023/09/11 12:05:17;;;;;;;120.68;72.45;;;13.10;90.70;;;;;;5061969;28;20029;-67
2023/09/11 12:07:45;;;;;;;110.63;68.22;;;13.10;90.80;;;;;;5055760;28;20059;-67
2023/09/11 12:10:12;;;;;;;106.95;64.25;;;13.10;90.90;;;;;;5050190;28;20029;-67
2023/09/11 12:12:42;;;;;;;94.75;60.08;;;13.10;90.90;;;;;;5053448;28;20020;-67
2023/09/11 12:15:11;;;;;;;89.95;59.35;;;13.10;91.00;;;;;;5049532;28;20024;-67
2023/09/11 12:17:49;;;;;;;84.63;55.03;;;13.00;91.10;;;;;;5049941;28;20034;-67
2023/09/11 12:20:25;;;;;;;86.68;54.35;;;13.10;91.10;;;;;;5051908;28;20024;-67
2023/09/11 12:22:52;;;;;;;79.57;51.55;;;13.20;91.20;;;;;;5048514;28;20055;-67
2023/09/11 12:25:19;;;;;;;88.47;50.50;;;13.10;90.90;;;;;;5053309;28;20497;-67
2023/09/11 12:27:47;;;;;;;80.53;48.80;;;13.10;91.00;;;;;;5049396;28;20036;-68
2023/09/11 12:30:15;;;;;;;74.45;45.95;;;13.20;91.10;;;;;;5049549;28;20510;-66
2023/09/11 12:32:45;;;;;;;73.95;42.08;;;13.20;91.10;;;;;;5052980;28;20075;-67
2023/09/11 12:35:12;;;;;;;65.28;39.13;;;13.40;91.00;;;;;;5050936;28;20043;-67
2023/09/11 12:37:40;;;;;;;55.97;35.30;;;13.50;90.80;;;;;;5054043;28;20029;-67
2023/09/11 12:40:12;;;;;;;56.53;31.70;;;13.50;90.80;;;;;;5051626;28;20043;-67
2023/09/11 12:42:39;;;;;;;43.25;28.60;;;13.50;90.50;;;;;;5053002;28;20037;-68
2023/09/11 12:45:08;;;;;;;41.00;25.63;;;13.50;90.70;;;;;;5061275;28;20032;-68
2023/09/11 12:47:36;;;;;;;38.78;21.58;;;13.50;90.70;;;;;;5052710;28;20200;-67
2023/09/11 12:50:04;;;;;;;29.63;18.95;;;13.50;90.60;;;;;;5050974;28;20082;-68